createdAt,value
2023-06-15T00:00:55.651Z,34.81
2023-06-15T00:01:55.708Z,34.79
2023-06-15T00:02:55.907Z,34.79
2023-06-15T00:03:56.081Z,34.81
2023-06-15T00:04:55.866Z,34.82
2023-06-15T00:05:55.935Z,34.82
2023-06-15T00:06:56.011Z,34.81
2023-06-15T00:07:56.038Z,34.82
2023-06-15T00:08:56.109Z,34.86
2023-06-15T00:09:56.195Z,34.80
2023-06-15T00:10:56.229Z,34.81
2023-06-15T00:11:56.272Z,34.82
2023-06-15T00:12:56.332Z,34.81
2023-06-15T00:13:56.405Z,34.82
2023-06-15T00:14:56.474Z,34.81
2023-06-15T00:15:56.526Z,34.80
2023-06-15T00:16:56.566Z,34.83
2023-06-15T00:17:56.697Z,34.85
2023-06-15T00:18:56.687Z,34.83
2023-06-15T00:19:56.765Z,34.83
2023-06-15T00:20:56.782Z,34.85
2023-06-15T00:21:56.853Z,34.82
2023-06-15T00:22:56.935Z,34.91
2023-06-15T00:23:56.993Z,34.88
2023-06-15T00:24:57.026Z,35.01
2023-06-15T00:25:57.130Z,34.91
2023-06-15T00:26:57.133Z,34.90
2023-06-15T00:27:57.175Z,34.93
2023-06-15T00:28:57.234Z,34.97
2023-06-15T00:29:57.314Z,34.89
2023-06-15T00:30:57.350Z,34.92
2023-06-15T00:31:57.499Z,34.92
2023-06-15T00:32:57.563Z,34.89
2023-06-15T00:33:57.551Z,34.85
2023-06-15T00:34:57.587Z,34.93
2023-06-15T00:35:57.644Z,34.94
2023-06-15T00:36:57.718Z,34.92
2023-06-15T00:37:57.788Z,34.92
2023-06-15T00:38:57.833Z,34.89
2023-06-15T00:39:57.879Z,34.89
2023-06-15T00:40:57.930Z,34.89
2023-06-15T00:41:57.998Z,34.91
2023-06-15T00:42:58.052Z,34.90
2023-06-15T00:43:58.110Z,34.91
2023-06-15T00:44:58.172Z,34.91
2023-06-15T00:45:58.233Z,34.89
2023-06-15T00:46:58.338Z,34.91
2023-06-15T00:47:58.366Z,34.93
2023-06-15T00:48:58.425Z,34.94
2023-06-15T00:49:58.458Z,34.91
2023-06-15T00:50:58.527Z,34.91
2023-06-15T00:51:58.605Z,34.90
2023-06-15T00:52:58.665Z,34.91
2023-06-15T00:53:58.703Z,34.92
2023-06-15T00:54:58.772Z,34.93
2023-06-15T00:55:58.811Z,34.93
2023-06-15T00:56:58.884Z,34.92
2023-06-15T00:57:58.931Z,34.91
2023-06-15T00:58:59.007Z,34.90
2023-06-15T00:59:59.054Z,34.96
2023-06-15T01:00:59.114Z,35.12
2023-06-15T01:01:59.169Z,35.07
2023-06-15T01:02:59.277Z,34.98
2023-06-15T01:03:59.310Z,35.11
2023-06-15T01:04:59.352Z,35.01
2023-06-15T01:05:59.400Z,34.96
2023-06-15T01:06:59.500Z,34.96
2023-06-15T01:07:59.521Z,34.99
2023-06-15T01:08:59.602Z,34.99
2023-06-15T01:09:59.661Z,34.98
2023-06-15T01:10:59.713Z,34.99
2023-06-15T01:11:59.800Z,35.00
2023-06-15T01:12:59.829Z,34.96
2023-06-15T01:13:59.920Z,35.16
2023-06-15T01:14:59.948Z,35.00
2023-06-15T01:16:00.022Z,34.98
2023-06-15T01:17:00.093Z,35.04
2023-06-15T01:18:00.229Z,35.03
2023-06-15T01:19:00.194Z,34.98
2023-06-15T01:20:00.243Z,34.99
2023-06-15T01:21:00.300Z,34.99
2023-06-15T01:22:00.389Z,34.98
2023-06-15T01:23:00.427Z,34.97
2023-06-15T01:24:00.550Z,35.02
2023-06-15T01:25:00.542Z,34.98
2023-06-15T01:26:00.627Z,34.97
2023-06-15T01:27:00.671Z,35.00
2023-06-15T01:28:00.742Z,35.02
2023-06-15T01:29:00.784Z,34.98
2023-06-15T01:30:00.882Z,34.99
2023-06-15T01:31:00.949Z,34.97
2023-06-15T01:32:00.974Z,35.04
2023-06-15T01:33:01.051Z,35.02
2023-06-15T01:34:01.133Z,34.98
2023-06-15T01:35:01.195Z,35.02
2023-06-15T01:36:01.206Z,35.05
2023-06-15T01:37:01.275Z,35.02
2023-06-15T01:38:01.328Z,35.01
2023-06-15T01:39:01.389Z,35.07
2023-06-15T01:40:01.468Z,35.03
2023-06-15T01:41:01.524Z,35.02
2023-06-15T01:42:01.571Z,35.05
2023-06-15T01:43:01.626Z,35.00
2023-06-15T01:44:01.683Z,35.02
2023-06-15T01:45:01.733Z,35.07
2023-06-15T01:46:01.801Z,35.01
2023-06-15T01:47:02.044Z,35.02
2023-06-15T01:48:01.966Z,35.05
2023-06-15T01:49:01.969Z,35.11
2023-06-15T01:50:02.037Z,35.07
2023-06-15T01:51:02.095Z,35.06
2023-06-15T01:52:02.169Z,35.02
2023-06-15T01:53:02.234Z,35.04
2023-06-15T01:54:02.309Z,35.20
2023-06-15T01:55:02.340Z,35.09
2023-06-15T01:56:02.425Z,35.07
2023-06-15T01:57:02.482Z,35.04
2023-06-15T01:58:02.563Z,35.09
2023-06-15T01:59:02.587Z,35.05
2023-06-15T02:00:02.649Z,35.06
2023-06-15T02:01:02.722Z,35.07
2023-06-15T02:02:02.831Z,35.10
2023-06-15T02:03:03.034Z,35.09
2023-06-15T02:04:02.892Z,35.04
2023-06-15T02:05:02.959Z,35.06
2023-06-15T02:06:03.026Z,35.06
2023-06-15T02:07:03.073Z,35.04
2023-06-15T02:08:03.153Z,35.03
2023-06-15T02:09:03.489Z,35.05
2023-06-15T02:10:03.260Z,35.04
2023-06-15T02:11:03.309Z,35.01
2023-06-15T02:12:03.379Z,35.07
2023-06-15T02:13:03.446Z,35.01
2023-06-15T02:14:03.511Z,35.04
2023-06-15T02:15:03.557Z,35.07
2023-06-15T02:16:03.626Z,35.11
2023-06-15T02:17:03.706Z,35.09
2023-06-15T02:18:03.753Z,35.12
2023-06-15T02:19:03.809Z,35.09
2023-06-15T02:20:03.906Z,35.07
2023-06-15T02:21:03.925Z,35.11
2023-06-15T02:22:03.990Z,35.07
2023-06-15T02:23:04.070Z,35.05
2023-06-15T02:24:04.126Z,35.07
2023-06-15T02:25:04.181Z,35.05
2023-06-15T02:26:04.252Z,35.04
2023-06-15T02:27:04.300Z,35.06
2023-06-15T02:28:04.364Z,35.04
2023-06-15T02:29:04.447Z,35.05
2023-06-15T02:30:04.511Z,35.04
2023-06-15T02:31:04.549Z,35.07
2023-06-15T02:32:04.635Z,35.06
2023-06-15T02:33:04.762Z,35.09
2023-06-15T02:34:04.785Z,35.11
2023-06-15T02:35:04.814Z,35.07
2023-06-15T02:36:04.852Z,35.10
2023-06-15T02:37:04.919Z,35.09
2023-06-15T02:38:05.002Z,35.07
2023-06-15T02:39:05.020Z,35.09
2023-06-15T02:40:05.099Z,35.12
2023-06-15T02:41:05.139Z,35.08
2023-06-15T02:42:05.203Z,35.10
2023-06-15T02:43:05.295Z,35.10
2023-06-15T02:44:05.337Z,35.14
2023-06-15T02:45:05.487Z,35.07
2023-06-15T02:46:05.460Z,35.06
2023-06-15T02:47:05.512Z,35.15
2023-06-15T02:48:05.621Z,35.13
2023-06-15T02:49:05.661Z,35.09
2023-06-15T02:50:05.724Z,35.11
2023-06-15T02:51:05.759Z,35.10
2023-06-15T02:52:05.826Z,35.10
2023-06-15T02:53:05.916Z,35.20
2023-06-15T02:54:05.963Z,35.12
2023-06-15T02:55:06.052Z,35.10
2023-06-15T02:56:08.071Z,35.11
2023-06-15T02:57:06.145Z,35.10
2023-06-15T02:58:06.183Z,35.06
2023-06-15T02:59:06.249Z,35.07
2023-06-15T03:00:06.319Z,35.10
2023-06-15T03:01:06.378Z,35.10
2023-06-15T03:02:06.482Z,35.13
2023-06-15T03:03:06.569Z,35.12
2023-06-15T03:04:06.578Z,35.07
2023-06-15T03:05:06.641Z,35.10
2023-06-15T03:06:06.722Z,35.16
2023-06-15T03:07:06.772Z,35.16
2023-06-15T03:08:06.821Z,35.16
2023-06-15T03:09:06.893Z,35.14
2023-06-15T03:10:06.975Z,35.13
2023-06-15T03:11:07.034Z,35.10
2023-06-15T03:12:07.078Z,35.20
2023-06-15T03:13:07.148Z,35.13
2023-06-15T03:14:07.213Z,35.10
2023-06-15T03:15:07.263Z,35.11
2023-06-15T03:16:07.339Z,35.08
2023-06-15T03:17:07.406Z,35.15
2023-06-15T03:18:07.487Z,35.10
2023-06-15T03:19:07.571Z,35.11
2023-06-15T03:20:07.590Z,35.21
2023-06-15T03:21:07.687Z,35.27
2023-06-15T03:22:07.715Z,35.12
2023-06-15T03:23:09.085Z,35.15
2023-06-15T03:24:07.864Z,35.12
2023-06-15T03:25:07.904Z,35.12
2023-06-15T03:26:07.975Z,35.13
2023-06-15T03:27:08.021Z,35.17
2023-06-15T03:28:08.070Z,35.18
2023-06-15T03:29:08.147Z,35.22
2023-06-15T03:30:08.192Z,35.30
2023-06-15T03:31:08.258Z,35.13
2023-06-15T03:32:08.340Z,35.17
2023-06-15T03:33:08.449Z,35.13
2023-06-15T03:34:08.479Z,35.12
2023-06-15T03:35:08.521Z,35.12
2023-06-15T03:36:08.570Z,35.17
2023-06-15T03:37:08.654Z,35.17
2023-06-15T03:38:08.702Z,35.14
2023-06-15T03:39:08.762Z,35.15
2023-06-15T03:40:08.828Z,35.18
2023-06-15T03:41:08.883Z,35.21
2023-06-15T03:42:08.968Z,35.17
2023-06-15T03:43:09.025Z,35.16
2023-06-15T03:44:09.099Z,35.23
2023-06-15T03:45:09.154Z,35.17
2023-06-15T03:46:09.203Z,35.29
2023-06-15T03:47:09.276Z,35.20
2023-06-15T03:48:09.402Z,35.16
2023-06-15T03:49:09.404Z,35.20
2023-06-15T03:50:09.490Z,35.13
2023-06-15T03:51:09.525Z,35.18
2023-06-15T03:52:09.621Z,35.16
2023-06-15T03:53:10.551Z,35.16
2023-06-15T03:54:09.727Z,35.19
2023-06-15T03:55:09.792Z,35.20
2023-06-15T03:56:09.827Z,35.24
2023-06-15T03:57:09.893Z,35.19
2023-06-15T03:58:09.957Z,35.23
2023-06-15T03:59:10.005Z,35.18
2023-06-15T04:00:10.078Z,35.18
2023-06-15T04:01:10.127Z,35.18
2023-06-15T04:02:10.206Z,35.20
2023-06-15T04:03:10.477Z,35.18
2023-06-15T04:04:10.429Z,35.19
2023-06-15T04:05:10.461Z,35.23
2023-06-15T04:06:10.457Z,35.17
2023-06-15T04:07:10.506Z,35.20
2023-06-15T04:08:10.603Z,35.22
2023-06-15T04:09:10.627Z,35.18
2023-06-15T04:10:10.705Z,35.23
2023-06-15T04:11:10.750Z,35.21
2023-06-15T04:12:10.812Z,35.25
2023-06-15T04:13:10.857Z,35.26
2023-06-15T04:14:10.934Z,35.23
2023-06-15T04:15:10.993Z,35.27
2023-06-15T04:16:11.056Z,35.22
2023-06-15T04:17:11.091Z,35.20
2023-06-15T04:18:11.171Z,35.25
2023-06-15T04:19:11.204Z,35.29
2023-06-15T04:20:11.277Z,35.30
2023-06-15T04:21:11.343Z,35.26
2023-06-15T04:22:11.433Z,35.21
2023-06-15T04:23:11.495Z,35.20
2023-06-15T04:24:11.576Z,35.25
2023-06-15T04:25:11.547Z,35.24
2023-06-15T04:26:11.619Z,35.21
2023-06-15T04:27:11.701Z,35.26
2023-06-15T04:28:11.769Z,35.21
2023-06-15T04:29:14.107Z,35.23
2023-06-15T04:30:11.794Z,35.21
2023-06-15T04:31:11.844Z,35.23
2023-06-15T04:32:11.793Z,35.19
2023-06-15T04:33:11.847Z,35.24
2023-06-15T04:34:11.833Z,35.27
2023-06-15T04:35:11.786Z,35.18
2023-06-15T04:36:11.773Z,35.23
2023-06-15T04:37:11.782Z,35.27
2023-06-15T04:38:11.746Z,35.26
2023-06-15T04:39:11.745Z,35.21
2023-06-15T04:40:11.751Z,35.30
2023-06-15T04:41:11.738Z,35.22
2023-06-15T04:42:11.738Z,35.19
2023-06-15T04:43:11.724Z,35.19
2023-06-15T04:44:11.750Z,35.19
2023-06-15T04:45:11.717Z,35.19
2023-06-15T04:46:11.698Z,35.28
2023-06-15T04:47:11.698Z,35.22
2023-06-15T04:48:11.688Z,35.22
2023-06-15T04:49:12.089Z,35.26
2023-06-15T04:50:11.680Z,35.23
2023-06-15T04:51:11.707Z,35.24
2023-06-15T04:52:11.706Z,35.21
2023-06-15T04:53:11.660Z,35.20
2023-06-15T04:54:11.666Z,35.19
2023-06-15T04:55:11.644Z,35.21
2023-06-15T04:56:11.656Z,35.21
2023-06-15T04:57:11.643Z,35.35
2023-06-15T04:58:11.635Z,35.19
2023-06-15T04:59:11.636Z,35.22
2023-06-15T05:00:11.661Z,35.20
2023-06-15T05:01:11.627Z,35.19
2023-06-15T05:02:11.694Z,35.18
2023-06-15T05:03:11.862Z,35.20
2023-06-15T05:04:11.757Z,35.20
2023-06-15T05:05:11.789Z,35.18
2023-06-15T05:06:11.878Z,35.20
2023-06-15T05:07:11.900Z,35.19
2023-06-15T05:08:11.980Z,35.20
2023-06-15T05:09:12.085Z,35.27
2023-06-15T05:10:12.077Z,35.31
2023-06-15T05:11:12.078Z,35.23
2023-06-15T05:12:12.103Z,35.23
2023-06-15T05:13:13.097Z,35.23
2023-06-15T05:14:12.614Z,35.22
2023-06-15T05:15:12.218Z,35.23
2023-06-15T05:16:12.287Z,35.24
2023-06-15T05:17:12.299Z,35.20
2023-06-15T05:18:12.371Z,35.23
2023-06-15T05:19:12.400Z,35.27
2023-06-15T05:20:12.440Z,35.26
2023-06-15T05:21:12.458Z,35.19
2023-06-15T05:22:12.497Z,35.21
2023-06-15T05:23:12.517Z,35.26
2023-06-15T05:24:12.626Z,35.26
2023-06-15T05:25:12.587Z,35.19
2023-06-15T05:26:29.069Z,35.24
2023-06-15T05:27:13.623Z,35.30
2023-06-15T05:28:12.643Z,35.23
2023-06-15T05:29:12.696Z,35.23
2023-06-15T05:30:13.605Z,35.23
2023-06-15T05:31:12.650Z,35.33
2023-06-15T05:32:12.593Z,35.24
2023-06-15T05:33:12.592Z,35.23
2023-06-15T05:34:13.138Z,35.23
2023-06-15T05:35:12.606Z,35.15
2023-06-15T05:36:31.572Z,35.03
2023-06-15T05:37:13.575Z,35.06
2023-06-15T05:38:12.576Z,34.71
2023-06-15T05:39:12.581Z,34.30
2023-06-15T05:40:12.577Z,34.47
2023-06-15T05:41:12.587Z,34.35
2023-06-15T05:42:12.555Z,34.10
2023-06-15T05:43:12.556Z,34.02
2023-06-15T05:44:12.637Z,33.84
2023-06-15T05:45:14.834Z,34.06
2023-06-15T05:46:12.832Z,34.36
2023-06-15T05:47:13.746Z,34.72
2023-06-15T05:48:12.874Z,34.93
2023-06-15T05:49:12.947Z,35.03
2023-06-15T05:50:13.046Z,35.10
2023-06-15T05:51:13.083Z,35.15
2023-06-15T05:52:13.077Z,35.27
2023-06-15T05:53:13.149Z,35.37
2023-06-15T05:54:13.118Z,35.40
2023-06-15T05:55:13.151Z,35.54
2023-06-15T05:56:13.201Z,35.59
2023-06-15T05:57:13.236Z,35.67
2023-06-15T05:58:13.295Z,35.69
2023-06-15T05:59:27.184Z,35.76
2023-06-15T06:00:14.315Z,35.86
2023-06-15T06:01:13.299Z,35.96
2023-06-15T06:02:13.286Z,36.03
2023-06-15T06:03:13.314Z,36.08
2023-06-15T06:04:13.309Z,36.12
2023-06-15T06:05:13.276Z,36.23
2023-06-15T06:06:13.295Z,36.39
2023-06-15T06:07:13.310Z,36.38
2023-06-15T06:08:13.266Z,36.52
2023-06-15T06:09:13.271Z,36.56
2023-06-15T06:10:13.229Z,36.52
2023-06-15T06:11:13.325Z,36.48
2023-06-15T06:12:13.220Z,36.62
2023-06-15T06:13:13.232Z,36.82
2023-06-15T06:14:13.208Z,36.71
2023-06-15T06:15:13.195Z,36.80
2023-06-15T06:16:13.213Z,36.90
2023-06-15T06:17:17.535Z,36.95
2023-06-15T06:18:14.268Z,36.95
2023-06-15T06:19:13.168Z,36.98
2023-06-15T06:20:13.215Z,37.07
2023-06-15T06:21:13.170Z,37.13
2023-06-15T06:22:13.196Z,37.16
2023-06-15T06:23:13.155Z,37.22
2023-06-15T06:24:13.169Z,37.31
2023-06-15T06:25:13.160Z,37.34
2023-06-15T06:26:13.132Z,37.37
2023-06-15T06:27:13.127Z,37.42
2023-06-15T06:28:13.104Z,37.51
2023-06-15T06:29:13.118Z,37.49
2023-06-15T06:30:13.096Z,37.53
2023-06-15T06:31:13.087Z,37.55
2023-06-15T06:32:13.133Z,37.58
2023-06-15T06:33:13.260Z,37.62
2023-06-15T06:34:13.069Z,37.67
2023-06-15T06:35:13.075Z,37.67
2023-06-15T06:36:13.198Z,37.79
2023-06-15T06:37:13.252Z,37.54
2023-06-15T06:38:13.355Z,37.23
2023-06-15T06:39:13.376Z,33.96
2023-06-15T06:40:13.371Z,34.08
2023-06-15T06:41:13.410Z,33.42
2023-06-15T06:42:13.407Z,33.26
2023-06-15T06:43:13.372Z,33.61
2023-06-15T06:44:13.369Z,33.78
2023-06-15T06:45:13.362Z,33.92
2023-06-15T06:46:13.350Z,34.10
2023-06-15T06:47:13.358Z,34.29
2023-06-15T06:48:13.446Z,34.37
2023-06-15T06:49:13.449Z,34.50
2023-06-15T06:50:13.539Z,34.61
2023-06-15T06:51:13.629Z,34.77
2023-06-15T06:52:13.726Z,34.93
2023-06-15T06:53:13.842Z,35.00
2023-06-15T06:54:13.914Z,35.19
2023-06-15T06:55:14.038Z,35.28
2023-06-15T06:56:13.896Z,35.32
2023-06-15T06:57:13.968Z,35.37
2023-06-15T06:58:13.924Z,35.50
2023-06-15T06:59:14.310Z,35.59
2023-06-15T07:00:14.013Z,35.73
2023-06-15T07:01:14.025Z,35.81
2023-06-15T07:02:14.100Z,35.87
2023-06-15T07:03:14.104Z,36.00
2023-06-15T07:04:14.100Z,36.03
2023-06-15T07:05:14.148Z,36.13
2023-06-15T07:06:14.109Z,36.15
2023-06-15T07:07:14.121Z,36.13
2023-06-15T07:08:14.136Z,36.25
2023-06-15T07:09:14.267Z,36.26
2023-06-15T07:10:14.202Z,36.38
2023-06-15T07:11:14.191Z,36.46
2023-06-15T07:12:14.245Z,36.57
2023-06-15T07:13:14.333Z,36.61
2023-06-15T07:14:14.335Z,36.70
2023-06-15T07:15:14.428Z,36.78
2023-06-15T07:16:14.444Z,36.76
2023-06-15T07:17:14.470Z,36.80
2023-06-15T07:18:14.533Z,36.88
2023-06-15T07:19:14.586Z,36.83
2023-06-15T07:20:14.723Z,36.92
2023-06-15T07:21:14.708Z,37.04
2023-06-15T07:22:14.787Z,37.08
2023-06-15T07:23:14.842Z,37.12
2023-06-15T07:24:14.922Z,37.17
2023-06-15T07:25:15.137Z,37.19
2023-06-15T07:26:15.126Z,37.19
2023-06-15T07:27:15.115Z,37.22
2023-06-15T07:28:15.179Z,37.17
2023-06-15T07:29:15.685Z,37.08
2023-06-15T07:30:15.703Z,37.17
2023-06-15T07:31:15.356Z,37.25
2023-06-15T07:32:15.453Z,37.34
2023-06-15T07:33:15.484Z,37.30
2023-06-15T07:34:15.577Z,36.49
2023-06-15T07:35:15.606Z,35.15
2023-06-15T07:36:15.661Z,34.98
2023-06-15T07:37:15.778Z,34.65
2023-06-15T07:38:15.966Z,34.23
2023-06-15T07:39:15.872Z,34.35
2023-06-15T07:40:16.342Z,33.97
2023-06-15T07:41:15.991Z,32.78
2023-06-15T07:42:16.066Z,32.08
2023-06-15T07:43:16.105Z,31.56
2023-06-15T07:44:16.198Z,31.54
2023-06-15T07:45:16.225Z,30.78
2023-06-15T07:46:16.282Z,30.74
2023-06-15T07:47:16.322Z,31.18
2023-06-15T07:48:16.405Z,31.89
2023-06-15T07:49:16.411Z,32.29
2023-06-15T07:50:16.739Z,32.16
2023-06-15T07:51:32.107Z,31.74
2023-06-15T07:52:17.482Z,31.54
2023-06-15T07:53:16.470Z,31.39
2023-06-15T07:54:16.639Z,29.88
2023-06-15T07:55:16.466Z,30.98
2023-06-15T07:56:16.479Z,31.10
2023-06-15T07:57:16.455Z,31.11
2023-06-15T07:58:16.494Z,31.32
2023-06-15T07:59:16.651Z,31.56
2023-06-15T08:00:16.823Z,31.75
2023-06-15T08:01:16.416Z,31.87
2023-06-15T08:02:16.401Z,32.09
2023-06-15T08:03:16.505Z,32.35
2023-06-15T08:04:16.726Z,32.56
2023-06-15T08:05:16.391Z,32.89
2023-06-15T08:06:16.457Z,33.13
2023-06-15T08:07:16.476Z,33.38
2023-06-15T08:08:16.535Z,33.54
2023-06-15T08:09:16.580Z,33.72
2023-06-15T08:10:16.929Z,33.94
2023-06-15T08:11:16.668Z,34.08
2023-06-15T08:12:16.687Z,34.31
2023-06-15T08:13:16.745Z,34.50
2023-06-15T08:14:16.829Z,34.49
2023-06-15T08:15:16.885Z,34.67
2023-06-15T08:16:16.894Z,34.87
2023-06-15T08:17:16.934Z,35.00
2023-06-15T08:18:17.057Z,35.18
2023-06-15T08:19:17.017Z,35.38
2023-06-15T08:20:17.316Z,35.49
2023-06-15T08:21:17.095Z,35.56
2023-06-15T08:22:17.145Z,35.74
2023-06-15T08:23:17.212Z,36.00
2023-06-15T08:24:17.273Z,36.16
2023-06-15T08:25:17.301Z,36.34
2023-06-15T08:26:17.351Z,36.40
2023-06-15T08:27:17.439Z,36.11
2023-06-15T08:28:17.475Z,35.42
2023-06-15T08:29:23.412Z,35.77
2023-06-15T08:30:19.028Z,35.74
2023-06-15T08:31:17.445Z,35.58
2023-06-15T08:32:17.433Z,35.46
2023-06-15T08:33:17.477Z,35.44
2023-06-15T08:34:17.672Z,35.43
2023-06-15T08:35:17.493Z,35.36
2023-06-15T08:36:17.556Z,35.13
2023-06-15T08:37:17.567Z,35.11
2023-06-15T08:38:17.642Z,35.01
2023-06-15T08:39:18.674Z,34.95
2023-06-15T08:40:17.894Z,34.31
2023-06-15T08:41:17.598Z,34.23
2023-06-15T08:42:17.589Z,34.15
2023-06-15T08:43:17.608Z,35.27
2023-06-15T08:44:17.605Z,33.90
2023-06-15T08:45:17.657Z,33.77
2023-06-15T08:46:18.766Z,33.29
2023-06-15T08:47:17.702Z,32.51
2023-06-15T08:48:17.714Z,32.63
2023-06-15T08:49:17.722Z,32.40
2023-06-15T08:50:17.981Z,32.61
2023-06-15T08:51:17.880Z,33.32
2023-06-15T08:52:18.044Z,33.87
2023-06-15T08:53:18.122Z,34.04
2023-06-15T08:54:18.235Z,34.31
2023-06-15T08:55:18.243Z,33.69
2023-06-15T08:56:18.226Z,33.25
2023-06-15T08:57:18.207Z,33.77
2023-06-15T08:58:18.223Z,34.20
2023-06-15T08:59:18.688Z,33.84
2023-06-15T09:00:18.459Z,34.62
2023-06-15T09:01:18.336Z,34.61
2023-06-15T09:02:18.270Z,33.77
2023-06-15T09:03:18.338Z,34.04
2023-06-15T09:04:18.411Z,34.26
2023-06-15T09:05:18.380Z,34.31
2023-06-15T09:06:18.407Z,34.24
2023-06-15T09:07:18.469Z,34.21
2023-06-15T09:08:18.505Z,34.33
2023-06-15T09:09:18.540Z,34.29
2023-06-15T09:10:18.983Z,33.79
2023-06-15T09:11:18.629Z,32.29
2023-06-15T09:12:18.670Z,33.39
2023-06-15T09:13:18.717Z,33.07
2023-06-15T09:14:18.795Z,31.68
2023-06-15T09:15:18.783Z,32.36
2023-06-15T09:16:18.848Z,31.30
2023-06-15T09:17:18.872Z,31.52
2023-06-15T09:18:18.939Z,31.36
2023-06-15T09:19:18.983Z,30.68
2023-06-15T09:20:19.247Z,30.34
2023-06-15T09:21:19.041Z,30.94
2023-06-15T09:22:19.153Z,30.43
2023-06-15T09:23:19.110Z,30.30
2023-06-15T09:24:19.218Z,29.68
2023-06-15T09:25:19.188Z,29.06
2023-06-15T09:26:19.200Z,28.50
2023-06-15T09:27:19.212Z,28.38
2023-06-15T09:28:19.233Z,28.67
2023-06-15T09:29:19.738Z,28.22
2023-06-15T09:30:19.637Z,27.85
2023-06-15T09:31:19.261Z,27.92
2023-06-15T09:32:19.226Z,27.86
2023-06-15T09:33:19.244Z,27.96
2023-06-15T09:34:19.700Z,26.98
2023-06-15T09:35:19.262Z,27.92
2023-06-15T09:36:19.221Z,26.30
2023-06-15T09:37:19.240Z,26.10
2023-06-15T09:38:19.224Z,25.73
2023-06-15T09:39:19.250Z,25.95
2023-06-15T09:40:19.580Z,26.14
2023-06-15T09:41:19.474Z,26.39
2023-06-15T09:42:19.586Z,27.05
2023-06-15T09:43:19.652Z,27.35
2023-06-15T09:44:19.721Z,27.76
2023-06-15T09:45:20.268Z,27.86
2023-06-15T09:46:19.857Z,28.11
2023-06-15T09:47:19.864Z,28.23
2023-06-15T09:48:19.939Z,28.09
2023-06-15T09:49:19.901Z,28.45
2023-06-15T09:50:20.266Z,28.68
2023-06-15T09:51:20.035Z,28.79
2023-06-15T09:52:20.060Z,28.99
2023-06-15T09:53:20.125Z,29.10
2023-06-15T09:54:20.220Z,29.24
2023-06-15T09:55:20.259Z,29.38
2023-06-15T09:56:30.561Z,29.57
2023-06-15T09:57:21.236Z,29.70
2023-06-15T09:58:20.222Z,29.87
2023-06-15T09:59:20.244Z,30.02
2023-06-15T10:00:20.420Z,29.97
2023-06-15T10:01:20.232Z,30.13
2023-06-15T10:02:20.194Z,30.27
2023-06-15T10:03:20.393Z,30.38
2023-06-15T10:04:20.262Z,30.45
2023-06-15T10:05:20.203Z,30.57
2023-06-15T10:06:20.252Z,30.62
2023-06-15T10:07:20.276Z,30.67
2023-06-15T10:08:20.334Z,30.80
2023-06-15T10:09:20.353Z,30.77
2023-06-15T10:10:20.722Z,30.77
2023-06-15T10:11:20.424Z,30.67
2023-06-15T10:12:20.469Z,30.68
2023-06-15T10:13:20.454Z,30.61
2023-06-15T10:14:20.458Z,30.64
2023-06-15T10:15:20.517Z,30.64
2023-06-15T10:16:20.523Z,30.65
2023-06-15T10:17:20.585Z,30.65
2023-06-15T10:18:20.572Z,30.70
2023-06-15T10:19:20.596Z,30.80
2023-06-15T10:20:20.931Z,30.91
2023-06-15T10:21:20.637Z,30.99
2023-06-15T10:22:20.698Z,31.01
2023-06-15T10:23:29.375Z,30.90
2023-06-15T10:24:21.763Z,30.83
2023-06-15T10:25:20.689Z,30.84
2023-06-15T10:26:20.703Z,30.95
2023-06-15T10:27:21.282Z,31.18
2023-06-15T10:28:20.782Z,31.43
2023-06-15T10:29:20.684Z,29.39
2023-06-15T10:30:20.916Z,28.08
2023-06-15T10:31:20.672Z,28.70
2023-06-15T10:32:20.726Z,27.54
2023-06-15T10:33:21.229Z,28.45
2023-06-15T10:34:21.225Z,29.83
2023-06-15T10:35:20.916Z,28.63
2023-06-15T10:36:20.857Z,29.43
2023-06-15T10:37:21.748Z,29.87
2023-06-15T10:38:21.016Z,29.87
2023-06-15T10:39:21.267Z,29.94
2023-06-15T10:40:21.357Z,29.93
2023-06-15T10:41:21.050Z,29.78
2023-06-15T10:42:21.193Z,30.02
2023-06-15T10:43:21.169Z,29.98
2023-06-15T10:44:23.026Z,29.96
2023-06-15T10:45:21.382Z,30.02
2023-06-15T10:46:21.433Z,29.89
2023-06-15T10:47:21.584Z,29.78
2023-06-15T10:48:21.538Z,29.27
2023-06-15T10:49:21.570Z,29.35
2023-06-15T10:50:21.764Z,28.89
2023-06-15T10:51:21.693Z,29.52
2023-06-15T10:52:21.850Z,29.42
2023-06-15T10:53:21.742Z,29.49
2023-06-15T10:54:21.824Z,29.23
2023-06-15T10:55:21.799Z,29.45
2023-06-15T10:56:21.825Z,29.68
2023-06-15T10:57:21.846Z,29.66
2023-06-15T10:58:21.887Z,29.75
2023-06-15T10:59:21.878Z,29.42
2023-06-15T11:00:22.007Z,29.48
2023-06-15T11:01:22.306Z,29.70
2023-06-15T11:02:21.942Z,29.73
2023-06-15T11:03:21.948Z,29.72
2023-06-15T11:04:22.068Z,29.77
2023-06-15T11:05:22.021Z,29.73
2023-06-15T11:06:22.058Z,29.83
2023-06-15T11:07:22.092Z,29.54
2023-06-15T11:08:22.098Z,29.67
2023-06-15T11:09:22.152Z,29.29
2023-06-15T11:10:22.117Z,29.32
2023-06-15T11:11:22.125Z,29.48
2023-06-15T11:12:22.152Z,29.64
2023-06-15T11:13:22.097Z,29.65
2023-06-15T11:14:22.140Z,29.68
2023-06-15T11:15:22.085Z,29.34
2023-06-15T11:16:22.117Z,29.32
2023-06-15T11:17:22.122Z,29.38
2023-06-15T11:18:22.118Z,29.64
2023-06-15T11:19:22.138Z,29.77
2023-06-15T11:20:22.147Z,30.22
2023-06-15T11:21:22.116Z,30.33
2023-06-15T11:22:22.119Z,30.36
2023-06-15T11:23:22.203Z,30.38
2023-06-15T11:24:22.285Z,29.97
2023-06-15T11:25:22.319Z,29.95
2023-06-15T11:26:22.257Z,29.99
2023-06-15T11:27:22.234Z,29.97
2023-06-15T11:28:35.010Z,30.05
2023-06-15T11:29:23.329Z,30.09
2023-06-15T11:30:22.268Z,30.06
2023-06-15T11:31:22.309Z,29.89
2023-06-15T11:32:22.689Z,30.08
2023-06-15T11:33:22.267Z,29.95
2023-06-15T11:34:22.252Z,29.85
2023-06-15T11:35:22.240Z,29.92
2023-06-15T11:36:22.282Z,29.99
2023-06-15T11:37:22.281Z,29.80
2023-06-15T11:38:22.242Z,29.80
2023-06-15T11:39:22.185Z,29.90
2023-06-15T11:40:22.197Z,29.88
2023-06-15T11:41:22.164Z,29.83
2023-06-15T11:42:22.237Z,29.91
2023-06-15T11:43:22.154Z,29.79
2023-06-15T11:44:22.217Z,29.80
2023-06-15T11:45:22.153Z,29.65
2023-06-15T11:46:22.241Z,29.78
2023-06-15T11:47:22.217Z,29.64
2023-06-15T11:48:22.127Z,29.82
2023-06-15T11:49:22.121Z,29.79
2023-06-15T11:50:22.118Z,29.78
2023-06-15T11:51:22.116Z,29.94
2023-06-15T11:52:22.089Z,30.03
2023-06-15T11:53:22.104Z,29.96
2023-06-15T11:54:23.491Z,29.98
2023-06-15T11:55:22.206Z,29.96
2023-06-15T11:56:22.190Z,29.87
2023-06-15T11:57:22.400Z,29.91
2023-06-15T11:58:22.160Z,29.80
2023-06-15T11:59:22.184Z,29.89
2023-06-15T12:00:22.146Z,30.06
2023-06-15T12:01:22.152Z,30.09
2023-06-15T12:02:22.441Z,30.05
2023-06-15T12:03:22.234Z,30.06
2023-06-15T12:04:22.166Z,30.08
2023-06-15T12:05:22.140Z,30.12
2023-06-15T12:06:22.179Z,30.06
2023-06-15T12:07:32.438Z,30.04
2023-06-15T12:08:23.105Z,30.09
2023-06-15T12:09:22.108Z,30.24
2023-06-15T12:10:22.111Z,30.29
2023-06-15T12:11:22.082Z,30.23
2023-06-15T12:12:22.084Z,30.37
2023-06-15T12:13:22.081Z,30.23
2023-06-15T12:14:22.317Z,30.11
2023-06-15T12:15:22.077Z,30.12
2023-06-15T12:16:22.079Z,30.14
2023-06-15T12:17:22.059Z,30.19
2023-06-15T12:18:22.022Z,30.21
2023-06-15T12:19:22.056Z,30.26
2023-06-15T12:20:22.023Z,30.15
2023-06-15T12:21:23.428Z,30.18
2023-06-15T12:22:29.200Z,29.93
2023-06-15T12:23:23.022Z,30.15
2023-06-15T12:24:22.011Z,29.93
2023-06-15T12:25:21.971Z,29.67
2023-06-15T12:26:21.966Z,29.49
2023-06-15T12:27:21.969Z,29.55
2023-06-15T12:28:21.962Z,28.95
2023-06-15T12:29:21.977Z,29.12
2023-06-15T12:30:22.426Z,29.08
2023-06-15T12:31:21.940Z,28.88
2023-06-15T12:32:21.920Z,28.92
2023-06-15T12:33:21.960Z,29.40
2023-06-15T12:34:21.930Z,30.37
2023-06-15T12:35:21.912Z,29.97
2023-06-15T12:36:21.915Z,28.36
2023-06-15T12:37:21.893Z,27.52
2023-06-15T12:38:21.892Z,27.45
2023-06-15T12:39:21.873Z,27.51
2023-06-15T12:40:21.876Z,27.35
2023-06-15T12:41:21.864Z,27.77
2023-06-15T12:42:21.880Z,27.64
2023-06-15T12:43:21.864Z,28.42
2023-06-15T12:44:21.856Z,28.47
2023-06-15T12:45:21.833Z,28.99
2023-06-15T12:46:21.898Z,29.56
2023-06-15T12:47:21.822Z,30.19
2023-06-15T12:48:21.832Z,30.30
2023-06-15T12:49:21.839Z,30.34
2023-06-15T12:50:21.959Z,30.44
2023-06-15T12:51:21.794Z,30.52
2023-06-15T12:52:21.814Z,30.60
2023-06-15T12:53:21.783Z,30.72